createdAt,value
2023-03-16T00:01:37.862Z,18.20
2023-03-16T00:04:06.201Z,18.03
2023-03-16T00:06:34.261Z,17.67
2023-03-16T00:09:02.221Z,17.80
2023-03-16T00:11:30.267Z,17.23
2023-03-16T00:13:58.693Z,17.50
2023-03-16T00:16:28.058Z,17.90
2023-03-16T00:18:56.046Z,18.57
2023-03-16T00:21:23.998Z,17.93
2023-03-16T00:23:53.431Z,17.20
2023-03-16T00:26:22.555Z,17.20
2023-03-16T00:28:54.336Z,17.50
2023-03-16T00:31:25.009Z,18.57
2023-03-16T00:33:54.400Z,18.47
2023-03-16T00:36:22.910Z,17.60
2023-03-16T00:38:51.334Z,17.90
2023-03-16T00:41:19.440Z,19.03
2023-03-16T00:43:49.002Z,18.83
2023-03-16T00:46:18.541Z,18.40
2023-03-16T00:48:48.281Z,18.40
2023-03-16T00:51:19.012Z,18.50
2023-03-16T00:53:48.018Z,18.10
2023-03-16T00:56:16.619Z,18.57
2023-03-16T00:58:45.504Z,18.33
2023-03-16T01:01:15.584Z,17.80
2023-03-16T01:03:43.756Z,17.20
2023-03-16T01:06:13.573Z,17.13
2023-03-16T01:08:42.961Z,17.33
2023-03-16T01:11:13.698Z,17.20
2023-03-16T01:13:41.930Z,17.23
2023-03-16T01:16:11.063Z,16.80
2023-03-16T01:18:39.111Z,16.93
2023-03-16T01:21:09.035Z,18.70
2023-03-16T01:23:37.426Z,18.53
2023-03-16T01:26:08.459Z,17.40
2023-03-16T01:28:36.669Z,17.20
2023-03-16T01:31:08.136Z,18.60
2023-03-16T01:33:37.006Z,17.87
2023-03-16T01:36:07.728Z,17.57
2023-03-16T01:38:36.605Z,17.77
2023-03-16T01:41:06.864Z,18.80
2023-03-16T01:43:38.737Z,18.67
2023-03-16T01:46:23.132Z,18.83
2023-03-16T01:49:02.052Z,17.10
2023-03-16T01:51:36.483Z,16.77
2023-03-16T01:54:08.821Z,17.30
2023-03-16T01:56:42.875Z,17.17
2023-03-16T01:59:15.694Z,17.40
2023-03-16T02:01:43.961Z,18.13
2023-03-16T02:04:23.104Z,17.67
2023-03-16T02:06:51.450Z,18.10
2023-03-16T02:09:20.432Z,17.67
2023-03-16T02:11:51.147Z,19.60
2023-03-16T02:14:19.299Z,18.70
2023-03-16T02:16:47.898Z,18.80
2023-03-16T02:19:21.166Z,17.87
2023-03-16T02:21:56.996Z,41.30
2023-03-16T02:24:27.009Z,41.40
2023-03-16T02:26:58.950Z,40.50
2023-03-16T02:29:54.258Z,41.63
2023-03-16T02:32:24.239Z,40.73
2023-03-16T02:34:52.254Z,40.07
2023-03-16T02:37:20.379Z,40.93
2023-03-16T02:39:48.544Z,41.13
2023-03-16T02:42:19.280Z,40.40
2023-03-16T02:44:51.456Z,40.37
2023-03-16T02:47:30.020Z,41.33
2023-03-16T02:49:57.988Z,40.67
2023-03-16T02:52:26.110Z,41.83
2023-03-16T02:54:54.076Z,41.03
2023-03-16T02:57:22.235Z,41.30
2023-03-16T02:59:50.346Z,18.00
2023-03-16T03:02:18.359Z,17.97
2023-03-16T03:04:47.670Z,18.07
2023-03-16T03:07:16.238Z,18.40
2023-03-16T03:09:44.498Z,17.80
2023-03-16T03:12:13.493Z,17.37
2023-03-16T03:14:41.599Z,17.67
2023-03-16T03:17:11.000Z,18.33
2023-03-16T03:19:38.969Z,18.33
2023-03-16T03:22:08.636Z,17.90
2023-03-16T03:24:36.972Z,17.50
2023-03-16T03:27:05.980Z,17.80
2023-03-16T03:29:35.405Z,37.90
2023-03-16T03:32:03.919Z,41.20
2023-03-16T03:34:32.467Z,39.13
2023-03-16T03:37:01.436Z,40.00
2023-03-16T03:39:30.809Z,36.90
2023-03-16T03:41:58.771Z,42.80
2023-03-16T03:44:27.072Z,17.07
2023-03-16T03:46:55.050Z,36.67
2023-03-16T03:49:23.024Z,41.00
2023-03-16T03:51:51.493Z,41.27
2023-03-16T03:54:19.548Z,39.80
2023-03-16T03:56:48.916Z,40.53
2023-03-16T03:59:16.902Z,41.50
2023-03-16T04:01:44.946Z,39.80
2023-03-16T04:04:12.944Z,17.23
2023-03-16T04:06:41.688Z,39.83
2023-03-16T04:09:09.968Z,39.20
2023-03-16T04:11:38.227Z,37.87
2023-03-16T04:14:07.765Z,38.97
2023-03-16T04:16:35.923Z,42.63
2023-03-16T04:19:04.375Z,38.37
2023-03-16T04:21:32.884Z,38.20
2023-03-16T04:24:03.989Z,40.47
2023-03-16T04:26:32.589Z,38.13
2023-03-16T04:29:00.692Z,39.33
2023-03-16T04:31:30.250Z,39.57
2023-03-16T04:33:58.266Z,39.13
2023-03-16T04:36:26.380Z,40.27
2023-03-16T04:38:54.348Z,39.30
2023-03-16T04:41:22.346Z,37.93
2023-03-16T04:43:50.351Z,38.50
2023-03-16T04:46:18.374Z,37.80
2023-03-16T04:48:47.749Z,39.10
2023-03-16T04:51:16.051Z,39.70
2023-03-16T04:53:44.718Z,38.63
2023-03-16T04:56:18.092Z,38.97
2023-03-16T04:58:46.824Z,40.57
2023-03-16T05:01:15.050Z,40.00
2023-03-16T05:03:43.658Z,38.73
2023-03-16T05:06:13.780Z,37.63
2023-03-16T05:08:41.774Z,37.83
2023-03-16T05:11:10.206Z,38.30
2023-03-16T05:13:38.225Z,37.10
2023-03-16T05:16:07.406Z,37.17
2023-03-16T05:18:35.432Z,37.43
2023-03-16T05:21:03.405Z,17.43
2023-03-16T05:23:32.782Z,17.23
2023-03-16T05:26:01.214Z,18.33
2023-03-16T05:28:29.646Z,18.60
2023-03-16T05:30:57.676Z,17.47
2023-03-16T05:33:25.693Z,17.20
2023-03-16T05:35:53.723Z,16.10
2023-03-16T05:38:23.115Z,17.20
2023-03-16T05:40:53.224Z,16.27
2023-03-16T05:43:21.759Z,16.53
2023-03-16T05:45:50.132Z,17.77
2023-03-16T05:48:18.177Z,35.93
2023-03-16T05:50:46.173Z,37.70
2023-03-16T05:53:15.412Z,36.60
2023-03-16T05:55:43.410Z,35.83
2023-03-16T05:58:12.772Z,39.43
2023-03-16T06:00:40.932Z,37.13
2023-03-16T06:03:08.963Z,38.30
2023-03-16T06:05:36.937Z,37.03
2023-03-16T06:08:05.233Z,38.17
2023-03-16T06:10:33.496Z,40.43
2023-03-16T06:13:01.452Z,41.80
2023-03-16T06:15:31.072Z,39.13
2023-03-16T06:17:59.107Z,40.30
2023-03-16T06:20:27.320Z,38.17
2023-03-16T06:22:55.513Z,43.67
2023-03-16T06:25:24.152Z,39.50
2023-03-16T06:27:52.097Z,44.23
2023-03-16T06:30:20.215Z,42.63
2023-03-16T06:32:50.170Z,44.83
2023-03-16T06:35:18.217Z,46.03
2023-03-16T06:37:46.258Z,43.13
2023-03-16T06:40:14.732Z,25.73
2023-03-16T06:42:43.447Z,23.90
2023-03-16T06:45:13.093Z,25.00
2023-03-16T06:47:41.415Z,24.53
2023-03-16T06:50:12.862Z,22.73
2023-03-16T06:52:41.628Z,26.70
2023-03-16T06:55:12.563Z,23.17
2023-03-16T06:57:40.578Z,23.77
2023-03-16T07:00:10.268Z,21.93
2023-03-16T07:02:40.508Z,23.80
2023-03-16T07:05:13.095Z,24.70
2023-03-16T07:07:42.819Z,44.60
2023-03-16T07:10:12.924Z,43.63
2023-03-16T07:12:42.287Z,42.03
2023-03-16T07:15:11.896Z,45.57
2023-03-16T07:17:40.024Z,45.67
2023-03-16T07:20:12.794Z,47.70
2023-03-16T07:22:41.722Z,51.40
2023-03-16T07:25:11.479Z,51.73
2023-03-16T07:27:41.393Z,47.97
2023-03-16T07:30:12.276Z,49.67
2023-03-16T07:32:40.296Z,41.73
2023-03-16T07:35:11.671Z,44.25
2023-03-16T07:37:39.888Z,48.73
2023-03-16T07:40:09.325Z,46.23
2023-03-16T07:42:38.253Z,44.27
2023-03-16T07:45:07.546Z,59.13
2023-03-16T07:47:35.838Z,49.50
2023-03-16T07:50:03.889Z,26.80
2023-03-16T07:52:35.864Z,22.90
2023-03-16T07:55:06.199Z,26.80
2023-03-16T07:57:34.151Z,18.70
2023-03-16T08:00:05.118Z,24.30
2023-03-16T08:02:33.674Z,22.90
2023-03-16T08:05:01.746Z,30.53
2023-03-16T08:07:29.717Z,33.43
2023-03-16T08:09:59.106Z,20.10
2023-03-16T08:12:27.168Z,20.60
2023-03-16T08:14:55.664Z,25.57
2023-03-16T08:17:23.726Z,24.50
2023-03-16T08:19:51.736Z,24.87
2023-03-16T08:22:19.702Z,45.00
2023-03-16T08:24:47.877Z,22.30
2023-03-16T08:27:19.639Z,36.17
2023-03-16T08:29:47.890Z,31.90
2023-03-16T08:32:15.826Z,22.67
2023-03-16T08:34:43.779Z,23.00
2023-03-16T08:37:12.476Z,36.10
2023-03-16T08:39:42.069Z,26.27
2023-03-16T08:42:10.622Z,47.30
2023-03-16T08:44:40.141Z,47.63
2023-03-16T08:47:08.788Z,47.67
2023-03-16T08:49:37.061Z,40.67
2023-03-16T08:52:05.686Z,36.73
2023-03-16T08:54:33.842Z,38.30
2023-03-16T08:57:01.843Z,40.57
2023-03-16T08:59:30.790Z,23.93
2023-03-16T09:02:00.659Z,46.03
2023-03-16T09:04:30.071Z,34.37
2023-03-16T09:07:08.553Z,35.40
2023-03-16T09:09:38.221Z,37.33
2023-03-16T09:12:07.166Z,40.67
2023-03-16T09:14:38.434Z,31.63
2023-03-16T09:17:08.887Z,26.50
2023-03-16T09:19:50.539Z,39.80
2023-03-16T09:22:19.642Z,34.83
2023-03-16T09:24:48.497Z,27.73
2023-03-16T09:27:16.836Z,39.60
2023-03-16T09:29:45.433Z,48.20
2023-03-16T09:32:15.462Z,24.90
2023-03-16T09:34:44.773Z,44.93
2023-03-16T09:37:12.818Z,26.47
2023-03-16T09:39:40.825Z,24.30
2023-03-16T09:42:18.046Z,21.03
2023-03-16T09:44:55.404Z,22.63
2023-03-16T09:47:30.577Z,23.17
2023-03-16T09:50:01.413Z,44.13
2023-03-16T09:52:36.339Z,43.47
2023-03-16T09:55:10.226Z,45.03
2023-03-16T09:57:42.906Z,49.03
2023-03-16T10:00:19.512Z,40.90
2023-03-16T10:03:15.611Z,45.10
2023-03-16T10:05:43.704Z,43.23
2023-03-16T10:08:16.920Z,43.43
2023-03-16T10:11:07.104Z,44.53
2023-03-16T10:13:41.669Z,44.47
2023-03-16T10:16:13.192Z,45.30
2023-03-16T10:18:46.431Z,56.60
2023-03-16T10:21:16.853Z,58.27
2023-03-16T10:23:46.487Z,62.17
2023-03-16T10:26:18.928Z,57.67
2023-03-16T10:28:48.028Z,54.80
2023-03-16T10:31:21.520Z,44.83
2023-03-16T10:33:55.729Z,55.07
2023-03-16T10:36:30.601Z,42.33
2023-03-16T10:39:00.467Z,56.90
2023-03-16T10:41:31.303Z,43.23
2023-03-16T10:44:06.375Z,43.70
2023-03-16T10:46:40.299Z,41.20
2023-03-16T10:49:23.174Z,42.93
2023-03-16T10:51:51.399Z,47.17
2023-03-16T10:54:30.806Z,45.23
2023-03-16T10:56:59.418Z,42.80
2023-03-16T10:59:32.149Z,57.97
2023-03-16T11:02:00.715Z,19.13
2023-03-16T11:04:34.109Z,26.00
2023-03-16T11:07:02.326Z,23.50
2023-03-16T11:09:34.765Z,16.50
2023-03-16T11:12:15.420Z,17.20
2023-03-16T11:14:46.768Z,17.00
2023-03-16T11:17:18.959Z,16.07
2023-03-16T11:19:54.512Z,16.60
2023-03-16T11:22:25.310Z,16.17
2023-03-16T11:25:00.923Z,16.00
2023-03-16T11:27:37.920Z,16.50
2023-03-16T11:30:15.163Z,16.13
2023-03-16T11:32:53.417Z,15.50
2023-03-16T11:35:30.948Z,16.03
2023-03-16T11:38:08.266Z,16.17
2023-03-16T11:40:49.088Z,15.70
2023-03-16T11:43:47.989Z,16.23
2023-03-16T11:46:20.227Z,15.87
2023-03-16T11:49:17.785Z,16.00
2023-03-16T11:51:52.223Z,24.27
2023-03-16T11:54:45.067Z,16.30
2023-03-16T11:57:29.363Z,18.10
2023-03-16T12:00:06.624Z,23.57
2023-03-16T12:02:46.361Z,24.63
2023-03-16T12:05:39.782Z,22.57
2023-03-16T12:08:24.655Z,22.63
2023-03-16T12:10:58.664Z,20.93
2023-03-16T12:13:36.192Z,22.47
2023-03-16T12:16:08.750Z,21.20
2023-03-16T12:18:44.019Z,19.33
2023-03-16T12:21:16.188Z,17.60
2023-03-16T12:23:53.433Z,18.90
2023-03-16T12:26:25.127Z,19.03
2023-03-16T12:28:55.363Z,20.10
2023-03-16T12:31:31.975Z,18.60
2023-03-16T12:34:10.386Z,20.70
2023-03-16T12:37:08.214Z,20.83
2023-03-16T12:40:09.043Z,20.90
2023-03-16T12:42:49.773Z,19.33
2023-03-16T12:45:25.371Z,24.53
2023-03-16T12:48:02.059Z,18.97
2023-03-16T12:50:30.197Z,19.37
2023-03-16T12:52:58.234Z,24.57
2023-03-16T12:55:40.857Z,23.77
2023-03-16T12:58:11.721Z,24.63
2023-03-16T13:00:42.780Z,20.87
2023-03-16T13:03:16.585Z,20.70
2023-03-16T13:05:48.295Z,23.30
2023-03-16T13:08:18.485Z,20.80
2023-03-16T13:11:06.925Z,22.90
2023-03-16T13:13:35.696Z,20.20
2023-03-16T13:16:09.339Z,22.07
2023-03-16T13:18:41.711Z,20.77
2023-03-16T13:21:19.494Z,22.03
2023-03-16T13:23:57.538Z,19.97
2023-03-16T13:26:43.385Z,21.40
2023-03-16T13:29:23.924Z,21.10
2023-03-16T13:31:53.129Z,24.77
2023-03-16T13:34:24.536Z,26.50
2023-03-16T13:36:57.057Z,23.67
2023-03-16T13:39:28.428Z,21.80
2023-03-16T13:42:00.746Z,20.43
2023-03-16T13:44:30.564Z,20.83
2023-03-16T13:46:59.209Z,20.97
2023-03-16T13:49:27.615Z,21.40
2023-03-16T13:51:55.803Z,25.07
2023-03-16T13:54:28.055Z,18.97
2023-03-16T13:57:00.553Z,21.23
2023-03-16T13:59:29.142Z,22.23
2023-03-16T14:01:59.734Z,21.37
2023-03-16T14:04:30.824Z,19.43
2023-03-16T14:07:00.532Z,21.70
2023-03-16T14:09:30.679Z,35.40
2023-03-16T14:12:00.115Z,28.93
2023-03-16T14:14:31.991Z,20.97
2023-03-16T14:17:05.621Z,20.70
2023-03-16T14:19:44.388Z,28.93
2023-03-16T14:22:15.627Z,35.93
2023-03-16T14:24:45.275Z,19.80
2023-03-16T14:27:21.061Z,19.67
2023-03-16T14:30:01.675Z,22.00
2023-03-16T14:32:31.394Z,24.80
2023-03-16T14:35:13.002Z,21.10
2023-03-16T14:37:41.951Z,20.30
2023-03-16T14:40:24.399Z,33.90
2023-03-16T14:42:55.759Z,22.60
2023-03-16T14:45:23.892Z,20.60
2023-03-16T14:47:53.755Z,20.63
2023-03-16T14:50:26.331Z,21.10
2023-03-16T14:52:57.281Z,27.30
2023-03-16T14:55:25.918Z,19.97
2023-03-16T14:57:55.507Z,20.57
2023-03-16T15:00:25.536Z,19.97
2023-03-16T15:03:03.040Z,20.80
2023-03-16T15:05:36.012Z,34.60
2023-03-16T15:08:05.342Z,23.60
2023-03-16T15:10:36.092Z,41.77
2023-03-16T15:13:16.962Z,35.33
2023-03-16T15:15:47.214Z,22.67
2023-03-16T15:18:16.109Z,21.20
2023-03-16T15:20:45.609Z,21.80
2023-03-16T15:23:17.097Z,24.90
2023-03-16T15:25:47.549Z,22.33
2023-03-16T15:28:19.665Z,26.57
2023-03-16T15:30:49.409Z,22.90
2023-03-16T15:33:17.753Z,22.43
2023-03-16T15:35:46.952Z,22.43
2023-03-16T15:38:17.956Z,24.43
2023-03-16T15:40:48.024Z,25.47
2023-03-16T15:43:19.165Z,24.30
2023-03-16T15:45:48.279Z,22.17
2023-03-16T15:48:17.117Z,19.23
2023-03-16T15:50:53.319Z,19.03
2023-03-16T15:53:30.930Z,18.90
2023-03-16T15:56:03.239Z,18.70
2023-03-16T15:58:35.076Z,19.90
2023-03-16T16:01:04.768Z,18.97
2023-03-16T16:03:33.803Z,18.53
2023-03-16T16:06:02.018Z,18.70
2023-03-16T16:08:30.064Z,19.30
2023-03-16T16:10:58.284Z,19.50
2023-03-16T16:13:43.181Z,20.87
2023-03-16T16:16:15.987Z,19.00
2023-03-16T16:18:44.288Z,19.00
2023-03-16T16:21:17.823Z,19.27
2023-03-16T16:23:45.975Z,18.40
2023-03-16T16:26:27.907Z,18.90
2023-03-16T16:28:59.594Z,18.53
2023-03-16T16:31:31.363Z,18.80
2023-03-16T16:34:00.009Z,18.77
2023-03-16T16:36:32.347Z,19.33
2023-03-16T16:39:00.619Z,19.17
2023-03-16T16:41:30.745Z,18.63
2023-03-16T16:44:00.121Z,17.77
2023-03-16T16:46:31.554Z,18.37
2023-03-16T16:49:01.827Z,18.60
2023-03-16T16:51:30.837Z,18.57
2023-03-16T16:54:01.047Z,18.50
2023-03-16T16:56:31.944Z,19.00
2023-03-16T16:59:02.819Z,18.07
2023-03-16T17:01:34.656Z,21.07
2023-03-16T17:04:03.681Z,21.47
2023-03-16T17:06:31.809Z,20.97
2023-03-16T17:08:59.770Z,21.13
2023-03-16T17:11:30.468Z,22.60
2023-03-16T17:14:01.689Z,21.10
2023-03-16T17:16:33.209Z,21.63
2023-03-16T17:19:01.410Z,21.10
2023-03-16T17:21:32.140Z,23.03
2023-03-16T17:24:01.571Z,23.27
2023-03-16T17:26:32.995Z,22.60
2023-03-16T17:29:03.100Z,21.90
2023-03-16T17:31:36.434Z,21.67
2023-03-16T17:34:16.570Z,22.60
2023-03-16T17:36:44.774Z,22.93
2023-03-16T17:39:18.842Z,21.73
2023-03-16T17:41:47.616Z,24.27
2023-03-16T17:44:16.204Z,23.03
2023-03-16T17:46:46.434Z,23.20
2023-03-16T17:49:16.026Z,23.23
2023-03-16T17:51:44.154Z,23.57
2023-03-16T17:54:12.450Z,23.63
2023-03-16T17:56:41.783Z,23.23
2023-03-16T17:59:16.692Z,27.10
2023-03-16T18:01:47.330Z,24.50
2023-03-16T18:04:18.211Z,23.07
2023-03-16T18:06:48.174Z,23.20
2023-03-16T18:09:16.457Z,23.60
2023-03-16T18:11:47.590Z,24.60
2023-03-16T18:14:24.649Z,23.57
2023-03-16T18:16:55.695Z,23.30
2023-03-16T18:19:25.807Z,22.70
2023-03-16T18:21:54.714Z,23.20
2023-03-16T18:24:26.583Z,36.13
2023-03-16T18:26:55.292Z,24.47
2023-03-16T18:29:24.118Z,25.43
2023-03-16T18:31:55.935Z,25.67
2023-03-16T18:34:25.277Z,24.87
2023-03-16T18:36:55.939Z,23.87
2023-03-16T18:39:24.124Z,22.90
2023-03-16T18:41:52.641Z,22.93
2023-03-16T18:44:23.392Z,23.70
2023-03-16T18:47:02.393Z,23.30
2023-03-16T18:49:34.612Z,23.33
2023-03-16T18:52:02.681Z,22.77
2023-03-16T18:54:32.458Z,25.13
2023-03-16T18:57:00.517Z,24.87
2023-03-16T18:59:29.194Z,24.23
2023-03-16T19:01:59.107Z,24.60
2023-03-16T19:04:29.268Z,24.13
2023-03-16T19:06:58.359Z,25.63
2023-03-16T19:09:28.403Z,25.50
2023-03-16T19:11:56.356Z,24.80
2023-03-16T19:14:28.374Z,24.73
2023-03-16T19:16:58.025Z,24.93
2023-03-16T19:19:27.375Z,24.43
2023-03-16T19:21:58.280Z,24.33
2023-03-16T19:24:28.923Z,23.47
2023-03-16T19:26:57.694Z,23.00
2023-03-16T19:29:31.685Z,22.33
2023-03-16T19:32:01.732Z,21.80
2023-03-16T19:34:30.763Z,21.67
2023-03-16T19:36:58.815Z,20.70
2023-03-16T19:39:27.871Z,21.80
2023-03-16T19:41:58.523Z,21.30
2023-03-16T19:44:28.541Z,21.70
2023-03-16T19:46:59.189Z,21.13
2023-03-16T19:49:29.403Z,20.90
2023-03-16T19:51:57.650Z,21.30
2023-03-16T19:54:27.161Z,21.30
2023-03-16T19:56:57.037Z,21.40
2023-03-16T19:59:32.409Z,20.90
2023-03-16T20:02:00.915Z,20.77
2023-03-16T20:04:31.381Z,20.97
2023-03-16T20:06:59.493Z,20.27
2023-03-16T20:09:27.558Z,20.70
2023-03-16T20:11:55.672Z,21.80
2023-03-16T20:14:30.810Z,21.07
2023-03-16T20:16:59.026Z,21.10
2023-03-16T20:19:27.137Z,20.43
2023-03-16T20:21:56.522Z,20.30
2023-03-16T20:24:24.541Z,20.60
2023-03-16T20:26:54.595Z,21.23
2023-03-16T20:29:28.816Z,22.00
2023-03-16T20:31:57.190Z,20.70
2023-03-16T20:34:27.467Z,21.20
2023-03-16T20:36:57.818Z,21.30
2023-03-16T20:39:25.903Z,21.67
2023-03-16T20:41:54.343Z,20.60
2023-03-16T20:44:23.644Z,21.63
2023-03-16T20:46:52.370Z,18.97
2023-03-16T20:49:38.653Z,19.23
2023-03-16T20:52:16.386Z,20.30
2023-03-16T20:54:44.375Z,19.27
2023-03-16T20:57:17.420Z,18.70
2023-03-16T20:59:47.971Z,19.03
2023-03-16T21:02:28.272Z,19.70
2023-03-16T21:04:57.031Z,18.57
2023-03-16T21:07:27.194Z,18.70
2023-03-16T21:09:55.420Z,19.10
2023-03-16T21:12:25.923Z,19.07
2023-03-16T21:14:53.984Z,19.63
2023-03-16T21:17:26.333Z,19.40
2023-03-16T21:19:54.530Z,18.67
2023-03-16T21:22:27.066Z,19.20
2023-03-16T21:24:55.514Z,20.03
2023-03-16T21:27:27.574Z,19.10
2023-03-16T21:29:56.839Z,18.80
2023-03-16T21:32:27.532Z,19.07
2023-03-16T21:34:57.546Z,19.40
2023-03-16T21:37:28.018Z,17.97
2023-03-16T21:39:56.121Z,18.53
2023-03-16T21:42:24.091Z,20.57
2023-03-16T21:44:52.360Z,19.17
2023-03-16T21:47:24.767Z,18.70
2023-03-16T21:49:53.812Z,18.53
2023-03-16T21:52:24.652Z,18.57
2023-03-16T21:54:54.841Z,19.57
2023-03-16T21:57:23.081Z,20.10
2023-03-16T21:59:51.898Z,19.13
2023-03-16T22:02:22.599Z,20.40
2023-03-16T22:04:51.828Z,18.90
2023-03-16T22:07:23.124Z,18.47
2023-03-16T22:09:51.213Z,19.50
2023-03-16T22:12:20.514Z,19.30
2023-03-16T22:14:48.716Z,20.30
2023-03-16T22:17:21.654Z,20.13
2023-03-16T22:19:49.794Z,19.50
2023-03-16T22:22:18.581Z,19.07
2023-03-16T22:24:48.114Z,20.80
2023-03-16T22:27:21.411Z,19.40
2023-03-16T22:29:51.203Z,20.57
2023-03-16T22:32:21.971Z,20.27
2023-03-16T22:34:51.975Z,19.30
2023-03-16T22:37:23.056Z,20.00
2023-03-16T22:39:51.776Z,19.20
2023-03-16T22:42:28.052Z,19.70
2023-03-16T22:44:57.792Z,18.87
2023-03-16T22:47:28.394Z,18.83
2023-03-16T22:49:56.735Z,18.90
2023-03-16T22:52:30.523Z,19.00
2023-03-16T22:54:59.078Z,18.50
2023-03-16T22:57:27.107Z,19.30
2023-03-16T22:59:55.419Z,19.30
2023-03-16T23:02:27.796Z,18.60
2023-03-16T23:04:55.999Z,19.57
2023-03-16T23:07:24.057Z,18.37
2023-03-16T23:09:52.392Z,19.63
2023-03-16T23:12:22.651Z,18.53
2023-03-16T23:14:50.752Z,18.77
2023-03-16T23:17:20.722Z,18.70
2023-03-16T23:19:50.197Z,19.00
2023-03-16T23:22:18.338Z,18.87
2023-03-16T23:24:46.326Z,18.90
2023-03-16T23:27:18.868Z,20.03
2023-03-16T23:29:47.303Z,18.90
2023-03-16T23:32:16.906Z,19.40
2023-03-16T23:34:45.324Z,42.40
2023-03-16T23:37:14.763Z,44.50
2023-03-16T23:39:42.777Z,40.87
2023-03-16T23:42:11.027Z,41.07
2023-03-16T23:44:39.284Z,42.07
2023-03-16T23:47:07.466Z,41.57
2023-03-16T23:49:39.770Z,41.33
2023-03-16T23:52:07.906Z,41.40
2023-03-16T23:54:37.313Z,41.93
2023-03-16T23:57:05.426Z,42.63
2023-03-16T23:59:33.380Z,41.10
